sensor_id;sensor_type;location;lat;lon;timestamp;temperature;humidity
10083;DHT22;5080;48.528;8.078;2024-02-15T00:00:59;11.70;99.90
10083;DHT22;5080;48.528;8.078;2024-02-15T00:03:26;11.60;99.90
10083;DHT22;5080;48.528;8.078;2024-02-15T00:05:54;11.60;99.90
10083;DHT22;5080;48.528;8.078;2024-02-15T00:08:20;11.50;99.90
10083;DHT22;5080;48.528;8.078;2024-02-15T00:10:47;11.50;99.90
10083;DHT22;5080;48.528;8.078;2024-02-15T00:13:14;11.40;99.90
10083;DHT22;5080;48.528;8.078;2024-02-15T00:15:41;11.40;99.90
10083;DHT22;5080;48.528;8.078;2024-02-15T00:18:07;11.30;99.90
10083;DHT22;5080;48.528;8.078;2024-02-15T00:20:34;11.30;99.90
10083;DHT22;5080;48.528;8.078;2024-02-15T00:23:03;11.30;99.90
10083;DHT22;5080;48.528;8.078;2024-02-15T00:25:29;11.20;99.90
10083;DHT22;5080;48.528;8.078;2024-02-15T00:27:56;11.10;99.90
10083;DHT22;5080;48.528;8.078;2024-02-15T00:30:23;11.10;99.90
10083;DHT22;5080;48.528;8.078;2024-02-15T00:32:50;11.00;99.90
10083;DHT22;5080;48.528;8.078;2024-02-15T00:35:16;11.00;99.90
10083;DHT22;5080;48.528;8.078;2024-02-15T00:37:44;10.90;99.90
10083;DHT22;5080;48.528;8.078;2024-02-15T00:40:13;10.80;99.90
10083;DHT22;5080;48.528;8.078;2024-02-15T00:42:39;10.80;99.90
10083;DHT22;5080;48.528;8.078;2024-02-15T00:45:06;10.70;99.90
10083;DHT22;5080;48.528;8.078;2024-02-15T00:47:34;10.70;99.90
10083;DHT22;5080;48.528;8.078;2024-02-15T00:50:01;10.60;99.90
10083;DHT22;5080;48.528;8.078;2024-02-15T00:52:28;10.60;99.90
10083;DHT22;5080;48.528;8.078;2024-02-15T00:54:56;10.60;99.90
10083;DHT22;5080;48.528;8.078;2024-02-15T00:57:24;10.50;99.90
10083;DHT22;5080;48.528;8.078;2024-02-15T00:59:51;10.50;99.90
10083;DHT22;5080;48.528;8.078;2024-02-15T01:02:18;10.40;99.90
10083;DHT22;5080;48.528;8.078;2024-02-15T01:04:45;10.40;99.90
10083;DHT22;5080;48.528;8.078;2024-02-15T01:07:11;10.40;99.90
10083;DHT22;5080;48.528;8.078;2024-02-15T01:09:39;10.40;99.90
10083;DHT22;5080;48.528;8.078;2024-02-15T01:12:06;10.40;99.90
10083;DHT22;5080;48.528;8.078;2024-02-15T01:14:34;10.30;99.90
10083;DHT22;5080;48.528;8.078;2024-02-15T01:17:00;10.40;99.90
10083;DHT22;5080;48.528;8.078;2024-02-15T01:19:27;10.30;99.90
10083;DHT22;5080;48.528;8.078;2024-02-15T01:21:54;10.30;99.90
10083;DHT22;5080;48.528;8.078;2024-02-15T01:24:21;10.30;99.90
10083;DHT22;5080;48.528;8.078;2024-02-15T01:26:47;10.20;99.90
10083;DHT22;5080;48.528;8.078;2024-02-15T01:29:14;10.10;99.90
10083;DHT22;5080;48.528;8.078;2024-02-15T01:31:42;10.10;99.90
10083;DHT22;5080;48.528;8.078;2024-02-15T01:34:10;10.10;99.90
10083;DHT22;5080;48.528;8.078;2024-02-15T01:36:36;10.00;99.90
10083;DHT22;5080;48.528;8.078;2024-02-15T01:39:03;9.90;99.90
10083;DHT22;5080;48.528;8.078;2024-02-15T01:41:30;9.90;99.90
10083;DHT22;5080;48.528;8.078;2024-02-15T01:43:57;9.90;99.90
10083;DHT22;5080;48.528;8.078;2024-02-15T01:46:24;9.90;99.90
10083;DHT22;5080;48.528;8.078;2024-02-15T01:48:52;9.90;99.90
10083;DHT22;5080;48.528;8.078;2024-02-15T01:51:23;9.90;99.90
10083;DHT22;5080;48.528;8.078;2024-02-15T01:53:53;9.90;99.90
10083;DHT22;5080;48.528;8.078;2024-02-15T01:56:22;9.80;99.90
10083;DHT22;5080;48.528;8.078;2024-02-15T01:58:49;9.80;99.90
10083;DHT22;5080;48.528;8.078;2024-02-15T02:01:17;9.80;99.90
10083;DHT22;5080;48.528;8.078;2024-02-15T02:03:44;9.70;99.90
10083;DHT22;5080;48.528;8.078;2024-02-15T02:06:12;9.70;99.90
10083;DHT22;5080;48.528;8.078;2024-02-15T02:08:40;9.70;99.90
10083;DHT22;5080;48.528;8.078;2024-02-15T02:11:06;9.80;99.90
10083;DHT22;5080;48.528;8.078;2024-02-15T02:13:33;9.80;99.90
10083;DHT22;5080;48.528;8.078;2024-02-15T02:16:00;9.80;99.90
10083;DHT22;5080;48.528;8.078;2024-02-15T02:18:27;9.70;99.90
10083;DHT22;5080;48.528;8.078;2024-02-15T02:20:54;9.70;99.90
10083;DHT22;5080;48.528;8.078;2024-02-15T02:23:26;9.70;99.90
10083;DHT22;5080;48.528;8.078;2024-02-15T02:25:56;9.60;99.90
10083;DHT22;5080;48.528;8.078;2024-02-15T02:28:23;9.60;99.90
10083;DHT22;5080;48.528;8.078;2024-02-15T02:30:50;9.60;99.90
10083;DHT22;5080;48.528;8.078;2024-02-15T02:33:17;9.60;99.90
10083;DHT22;5080;48.528;8.078;2024-02-15T02:35:47;9.50;99.90
10083;DHT22;5080;48.528;8.078;2024-02-15T02:38:15;9.50;99.90
10083;DHT22;5080;48.528;8.078;2024-02-15T02:40:41;9.50;99.90
10083;DHT22;5080;48.528;8.078;2024-02-15T02:43:10;9.40;99.90
10083;DHT22;5080;48.528;8.078;2024-02-15T02:45:36;9.40;99.90
10083;DHT22;5080;48.528;8.078;2024-02-15T02:48:04;9.30;99.90
10083;DHT22;5080;48.528;8.078;2024-02-15T02:50:31;9.30;99.90
10083;DHT22;5080;48.528;8.078;2024-02-15T02:52:57;9.30;99.90
10083;DHT22;5080;48.528;8.078;2024-02-15T02:55:24;9.30;99.90
10083;DHT22;5080;48.528;8.078;2024-02-15T02:57:52;9.30;99.90
10083;DHT22;5080;48.528;8.078;2024-02-15T03:00:22;9.30;99.90
10083;DHT22;5080;48.528;8.078;2024-02-15T03:02:48;9.30;99.90
10083;DHT22;5080;48.528;8.078;2024-02-15T03:05:15;9.20;99.90
10083;DHT22;5080;48.528;8.078;2024-02-15T03:07:42;9.20;99.90
10083;DHT22;5080;48.528;8.078;2024-02-15T03:10:08;9.20;99.90
10083;DHT22;5080;48.528;8.078;2024-02-15T03:12:39;9.20;99.90
10083;DHT22;5080;48.528;8.078;2024-02-15T03:15:07;9.00;99.90
10083;DHT22;5080;48.528;8.078;2024-02-15T03:17:39;9.00;99.90
10083;DHT22;5080;48.528;8.078;2024-02-15T03:20:07;9.00;99.90
10083;DHT22;5080;48.528;8.078;2024-02-15T03:22:37;9.00;99.90
10083;DHT22;5080;48.528;8.078;2024-02-15T03:25:05;9.00;99.90
10083;DHT22;5080;48.528;8.078;2024-02-15T03:27:33;9.00;99.90
10083;DHT22;5080;48.528;8.078;2024-02-15T03:30:00;9.00;99.90
10083;DHT22;5080;48.528;8.078;2024-02-15T03:32:28;9.00;99.90
10083;DHT22;5080;48.528;8.078;2024-02-15T03:34:56;8.90;99.90
10083;DHT22;5080;48.528;8.078;2024-02-15T03:37:24;8.90;99.90
10083;DHT22;5080;48.528;8.078;2024-02-15T03:39:50;8.90;99.90
10083;DHT22;5080;48.528;8.078;2024-02-15T03:42:16;8.80;99.90
10083;DHT22;5080;48.528;8.078;2024-02-15T03:44:43;8.80;99.90
10083;DHT22;5080;48.528;8.078;2024-02-15T03:47:10;8.80;99.90
10083;DHT22;5080;48.528;8.078;2024-02-15T03:49:39;8.80;99.90
10083;DHT22;5080;48.528;8.078;2024-02-15T03:52:09;8.80;99.90
10083;DHT22;5080;48.528;8.078;2024-02-15T03:54:36;8.80;99.90
10083;DHT22;5080;48.528;8.078;2024-02-15T03:57:03;8.80;99.90
10083;DHT22;5080;48.528;8.078;2024-02-15T03:59:32;8.70;99.90
10083;DHT22;5080;48.528;8.078;2024-02-15T04:02:00;8.70;99.90
10083;DHT22;5080;48.528;8.078;2024-02-15T04:04:28;8.70;99.90
10083;DHT22;5080;48.528;8.078;2024-02-15T04:06:55;8.80;99.90
10083;DHT22;5080;48.528;8.078;2024-02-15T04:09:23;8.80;99.90
10083;DHT22;5080;48.528;8.078;2024-02-15T04:11:50;8.80;99.90
10083;DHT22;5080;48.528;8.078;2024-02-15T04:14:18;8.80;99.90
10083;DHT22;5080;48.528;8.078;2024-02-15T04:16:45;8.80;99.90
10083;DHT22;5080;48.528;8.078;2024-02-15T04:19:12;8.80;99.90
10083;DHT22;5080;48.528;8.078;2024-02-15T04:21:39;8.80;99.90
10083;DHT22;5080;48.528;8.078;2024-02-15T04:24:09;8.70;99.90
10083;DHT22;5080;48.528;8.078;2024-02-15T04:26:38;8.60;99.90
10083;DHT22;5080;48.528;8.078;2024-02-15T04:29:05;8.60;99.90
10083;DHT22;5080;48.528;8.078;2024-02-15T04:31:33;8.60;99.90
10083;DHT22;5080;48.528;8.078;2024-02-15T04:34:02;8.60;99.90
10083;DHT22;5080;48.528;8.078;2024-02-15T04:36:29;8.50;99.90
10083;DHT22;5080;48.528;8.078;2024-02-15T04:38:59;8.50;99.90
10083;DHT22;5080;48.528;8.078;2024-02-15T04:41:27;8.60;99.90
10083;DHT22;5080;48.528;8.078;2024-02-15T04:43:55;8.50;99.90
10083;DHT22;5080;48.528;8.078;2024-02-15T04:46:22;8.50;99.90
10083;DHT22;5080;48.528;8.078;2024-02-15T04:48:50;8.50;99.90
10083;DHT22;5080;48.528;8.078;2024-02-15T04:51:17;8.50;99.90
10083;DHT22;5080;48.528;8.078;2024-02-15T04:53:45;8.50;99.90
10083;DHT22;5080;48.528;8.078;2024-02-15T04:56:13;8.50;99.90
10083;DHT22;5080;48.528;8.078;2024-02-15T04:58:42;8.50;99.90
10083;DHT22;5080;48.528;8.078;2024-02-15T05:01:14;8.60;99.90
10083;DHT22;5080;48.528;8.078;2024-02-15T05:03:41;8.60;99.90
10083;DHT22;5080;48.528;8.078;2024-02-15T05:06:08;8.70;99.90
10083;DHT22;5080;48.528;8.078;2024-02-15T05:08:35;8.60;99.90
10083;DHT22;5080;48.528;8.078;2024-02-15T05:11:03;8.60;99.90
10083;DHT22;5080;48.528;8.078;2024-02-15T05:13:32;8.60;99.90
10083;DHT22;5080;48.528;8.078;2024-02-15T05:15:59;8.60;99.90
10083;DHT22;5080;48.528;8.078;2024-02-15T05:18:27;8.60;99.90
10083;DHT22;5080;48.528;8.078;2024-02-15T05:20:56;8.60;99.90
10083;DHT22;5080;48.528;8.078;2024-02-15T05:23:22;8.70;99.90
10083;DHT22;5080;48.528;8.078;2024-02-15T05:25:49;8.60;99.90
10083;DHT22;5080;48.528;8.078;2024-02-15T05:28:16;8.60;99.90
10083;DHT22;5080;48.528;8.078;2024-02-15T05:30:43;8.60;99.90
10083;DHT22;5080;48.528;8.078;2024-02-15T05:33:10;8.60;99.90
10083;DHT22;5080;48.528;8.078;2024-02-15T05:35:38;8.60;99.90
10083;DHT22;5080;48.528;8.078;2024-02-15T05:38:06;8.50;99.90
10083;DHT22;5080;48.528;8.078;2024-02-15T05:40:33;8.50;99.90
10083;DHT22;5080;48.528;8.078;2024-02-15T05:43:00;8.40;99.90
10083;DHT22;5080;48.528;8.078;2024-02-15T05:45:31;8.40;99.90
10083;DHT22;5080;48.528;8.078;2024-02-15T05:48:04;8.40;99.90
10083;DHT22;5080;48.528;8.078;2024-02-15T05:50:34;8.40;99.90
10083;DHT22;5080;48.528;8.078;2024-02-15T05:53:02;8.30;99.90
10083;DHT22;5080;48.528;8.078;2024-02-15T05:55:29;8.40;99.90
10083;DHT22;5080;48.528;8.078;2024-02-15T05:57:59;8.40;99.90
10083;DHT22;5080;48.528;8.078;2024-02-15T06:00:26;8.30;99.90
10083;DHT22;5080;48.528;8.078;2024-02-15T06:02:56;8.40;99.90
10083;DHT22;5080;48.528;8.078;2024-02-15T06:05:23;8.30;99.90
10083;DHT22;5080;48.528;8.078;2024-02-15T06:07:49;8.30;99.90
10083;DHT22;5080;48.528;8.078;2024-02-15T06:10:17;8.30;99.90
10083;DHT22;5080;48.528;8.078;2024-02-15T06:12:44;8.20;99.90
10083;DHT22;5080;48.528;8.078;2024-02-15T06:15:11;8.20;99.90
10083;DHT22;5080;48.528;8.078;2024-02-15T06:17:41;8.20;99.90
10083;DHT22;5080;48.528;8.078;2024-02-15T06:20:11;8.20;99.90
10083;DHT22;5080;48.528;8.078;2024-02-15T06:22:39;8.20;99.90
10083;DHT22;5080;48.528;8.078;2024-02-15T06:25:07;8.30;99.90
10083;DHT22;5080;48.528;8.078;2024-02-15T06:27:36;8.30;99.90
10083;DHT22;5080;48.528;8.078;2024-02-15T06:30:08;8.30;99.90
10083;DHT22;5080;48.528;8.078;2024-02-15T06:32:53;8.40;99.90
10083;DHT22;5080;48.528;8.078;2024-02-15T06:35:46;8.40;99.90
10083;DHT22;5080;48.528;8.078;2024-02-15T06:38:32;8.50;99.90
10083;DHT22;5080;48.528;8.078;2024-02-15T06:41:16;8.50;99.90
10083;DHT22;5080;48.528;8.078;2024-02-15T06:43:46;8.50;99.90
10083;DHT22;5080;48.528;8.078;2024-02-15T06:46:12;8.60;99.90
10083;DHT22;5080;48.528;8.078;2024-02-15T06:48:41;8.60;99.90
10083;DHT22;5080;48.528;8.078;2024-02-15T06:51:12;8.60;99.90
10083;DHT22;5080;48.528;8.078;2024-02-15T06:53:40;8.60;99.90
10083;DHT22;5080;48.528;8.078;2024-02-15T06:56:09;8.60;99.90
10083;DHT22;5080;48.528;8.078;2024-02-15T06:58:35;8.60;99.90
10083;DHT22;5080;48.528;8.078;2024-02-15T07:01:04;8.60;99.90
10083;DHT22;5080;48.528;8.078;2024-02-15T07:03:31;8.60;99.90
10083;DHT22;5080;48.528;8.078;2024-02-15T07:05:58;8.60;99.90
10083;DHT22;5080;48.528;8.078;2024-02-15T07:08:25;8.70;99.90
10083;DHT22;5080;48.528;8.078;2024-02-15T07:10:52;8.60;99.90
10083;DHT22;5080;48.528;8.078;2024-02-15T07:13:18;8.80;99.90
10083;DHT22;5080;48.528;8.078;2024-02-15T07:15:45;8.80;99.90
10083;DHT22;5080;48.528;8.078;2024-02-15T07:18:17;8.90;99.90
10083;DHT22;5080;48.528;8.078;2024-02-15T07:20:45;8.90;99.90
10083;DHT22;5080;48.528;8.078;2024-02-15T07:23:12;8.90;99.90
10083;DHT22;5080;48.528;8.078;2024-02-15T07:25:39;8.90;99.90
10083;DHT22;5080;48.528;8.078;2024-02-15T07:28:06;8.90;99.90
10083;DHT22;5080;48.528;8.078;2024-02-15T07:30:34;8.90;99.90
10083;DHT22;5080;48.528;8.078;2024-02-15T07:33:02;8.90;99.90
10083;DHT22;5080;48.528;8.078;2024-02-15T07:35:31;8.90;99.90
10083;DHT22;5080;48.528;8.078;2024-02-15T07:37:58;9.00;99.90
10083;DHT22;5080;48.528;8.078;2024-02-15T07:40:27;9.00;99.90
10083;DHT22;5080;48.528;8.078;2024-02-15T07:42:56;9.10;99.90
10083;DHT22;5080;48.528;8.078;2024-02-15T07:45:23;9.20;99.90
10083;DHT22;5080;48.528;8.078;2024-02-15T07:47:50;9.20;99.90
10083;DHT22;5080;48.528;8.078;2024-02-15T07:50:17;9.30;99.90
10083;DHT22;5080;48.528;8.078;2024-02-15T07:52:48;9.40;99.90
10083;DHT22;5080;48.528;8.078;2024-02-15T07:55:15;9.50;99.90
10083;DHT22;5080;48.528;8.078;2024-02-15T07:57:42;9.60;99.90
10083;DHT22;5080;48.528;8.078;2024-02-15T08:00:09;9.70;99.90
10083;DHT22;5080;48.528;8.078;2024-02-15T08:02:37;9.80;99.90
10083;DHT22;5080;48.528;8.078;2024-02-15T08:05:06;9.90;99.90
10083;DHT22;5080;48.528;8.078;2024-02-15T08:07:36;9.90;99.90
10083;DHT22;5080;48.528;8.078;2024-02-15T08:10:06;10.00;99.90
10083;DHT22;5080;48.528;8.078;2024-02-15T08:12:38;10.10;99.90
10083;DHT22;5080;48.528;8.078;2024-02-15T08:15:05;10.10;99.90
10083;DHT22;5080;48.528;8.078;2024-02-15T08:17:37;10.20;99.90
10083;DHT22;5080;48.528;8.078;2024-02-15T08:20:05;10.30;99.90
10083;DHT22;5080;48.528;8.078;2024-02-15T08:22:32;10.30;99.90
10083;DHT22;5080;48.528;8.078;2024-02-15T08:24:59;10.40;99.90
10083;DHT22;5080;48.528;8.078;2024-02-15T08:27:27;10.40;99.90
10083;DHT22;5080;48.528;8.078;2024-02-15T08:29:58;10.50;99.90
10083;DHT22;5080;48.528;8.078;2024-02-15T08:32:24;10.50;99.90
10083;DHT22;5080;48.528;8.078;2024-02-15T08:34:51;10.60;99.90
10083;DHT22;5080;48.528;8.078;2024-02-15T08:37:18;10.60;99.90
10083;DHT22;5080;48.528;8.078;2024-02-15T08:39:45;10.70;99.90
10083;DHT22;5080;48.528;8.078;2024-02-15T08:42:11;10.70;99.90
10083;DHT22;5080;48.528;8.078;2024-02-15T08:44:39;10.80;99.90
10083;DHT22;5080;48.528;8.078;2024-02-15T08:47:06;10.90;99.90
10083;DHT22;5080;48.528;8.078;2024-02-15T08:49:34;11.00;99.90
10083;DHT22;5080;48.528;8.078;2024-02-15T08:52:00;11.20;99.90
10083;DHT22;5080;48.528;8.078;2024-02-15T08:54:29;11.40;99.90
10083;DHT22;5080;48.528;8.078;2024-02-15T08:56:58;11.30;99.90
10083;DHT22;5080;48.528;8.078;2024-02-15T08:59:25;11.70;99.90
10083;DHT22;5080;48.528;8.078;2024-02-15T09:01:54;11.90;99.90
10083;DHT22;5080;48.528;8.078;2024-02-15T09:04:22;12.00;99.90
10083;DHT22;5080;48.528;8.078;2024-02-15T09:06:51;12.20;99.90
10083;DHT22;5080;48.528;8.078;2024-02-15T09:09:18;12.30;99.90
10083;DHT22;5080;48.528;8.078;2024-02-15T09:11:45;12.40;99.90
10083;DHT22;5080;48.528;8.078;2024-02-15T09:14:12;12.50;99.90
10083;DHT22;5080;48.528;8.078;2024-02-15T09:16:38;12.60;99.90
10083;DHT22;5080;48.528;8.078;2024-02-15T09:19:07;12.80;99.90
10083;DHT22;5080;48.528;8.078;2024-02-15T09:21:34;12.90;99.90
10083;DHT22;5080;48.528;8.078;2024-02-15T09:24:02;13.00;99.90
10083;DHT22;5080;48.528;8.078;2024-02-15T09:26:29;13.10;99.90
10083;DHT22;5080;48.528;8.078;2024-02-15T09:28:55;13.20;99.90
10083;DHT22;5080;48.528;8.078;2024-02-15T09:31:22;13.30;99.90
10083;DHT22;5080;48.528;8.078;2024-02-15T09:33:50;13.40;99.90
10083;DHT22;5080;48.528;8.078;2024-02-15T09:36:18;13.50;99.90
10083;DHT22;5080;48.528;8.078;2024-02-15T09:38:45;13.60;99.90
10083;DHT22;5080;48.528;8.078;2024-02-15T09:41:12;13.70;99.90
10083;DHT22;5080;48.528;8.078;2024-02-15T09:43:38;13.90;99.90
10083;DHT22;5080;48.528;8.078;2024-02-15T09:46:05;14.00;99.90
10083;DHT22;5080;48.528;8.078;2024-02-15T09:48:34;14.10;99.90
10083;DHT22;5080;48.528;8.078;2024-02-15T09:51:01;14.20;99.90
10083;DHT22;5080;48.528;8.078;2024-02-15T09:53:30;14.30;99.90
10083;DHT22;5080;48.528;8.078;2024-02-15T09:55:59;14.30;99.90
10083;DHT22;5080;48.528;8.078;2024-02-15T09:58:30;14.30;99.90
10083;DHT22;5080;48.528;8.078;2024-02-15T10:01:00;14.10;99.90
10083;DHT22;5080;48.528;8.078;2024-02-15T10:03:30;14.00;99.90
10083;DHT22;5080;48.528;8.078;2024-02-15T10:05:57;13.90;99.90
10083;DHT22;5080;48.528;8.078;2024-02-15T10:08:24;13.80;99.90
10083;DHT22;5080;48.528;8.078;2024-02-15T10:11:07;13.80;99.90
10083;DHT22;5080;48.528;8.078;2024-02-15T10:13:34;13.70;99.90
10083;DHT22;5080;48.528;8.078;2024-02-15T10:16:14;13.60;99.90
10083;DHT22;5080;48.528;8.078;2024-02-15T10:18:40;13.60;99.90
10083;DHT22;5080;48.528;8.078;2024-02-15T10:21:07;13.70;99.90
10083;DHT22;5080;48.528;8.078;2024-02-15T10:23:34;13.60;99.90
10083;DHT22;5080;48.528;8.078;2024-02-15T10:26:20;13.60;99.90
10083;DHT22;5080;48.528;8.078;2024-02-15T10:29:04;13.60;99.90
10083;DHT22;5080;48.528;8.078;2024-02-15T10:31:34;13.60;99.90
10083;DHT22;5080;48.528;8.078;2024-02-15T10:34:03;13.60;99.90
10083;DHT22;5080;48.528;8.078;2024-02-15T10:36:31;13.70;99.90
10083;DHT22;5080;48.528;8.078;2024-02-15T10:39:10;13.80;99.90
10083;DHT22;5080;48.528;8.078;2024-02-15T10:41:43;13.90;99.90
10083;DHT22;5080;48.528;8.078;2024-02-15T10:44:16;13.90;99.90
10083;DHT22;5080;48.528;8.078;2024-02-15T10:46:44;14.00;99.90
10083;DHT22;5080;48.528;8.078;2024-02-15T10:49:12;14.10;99.90
10083;DHT22;5080;48.528;8.078;2024-02-15T10:51:42;14.20;99.90
10083;DHT22;5080;48.528;8.078;2024-02-15T10:54:12;14.20;99.90
10083;DHT22;5080;48.528;8.078;2024-02-15T10:56:44;14.40;99.90
10083;DHT22;5080;48.528;8.078;2024-02-15T10:59:17;14.50;99.90
10083;DHT22;5080;48.528;8.078;2024-02-15T11:01:45;14.50;99.90
10083;DHT22;5080;48.528;8.078;2024-02-15T11:04:14;14.50;99.90
10083;DHT22;5080;48.528;8.078;2024-02-15T11:06:43;14.50;99.90
10083;DHT22;5080;48.528;8.078;2024-02-15T11:09:10;14.50;99.90
10083;DHT22;5080;48.528;8.078;2024-02-15T11:11:39;14.40;99.90
10083;DHT22;5080;48.528;8.078;2024-02-15T11:14:26;14.50;99.90
10083;DHT22;5080;48.528;8.078;2024-02-15T11:16:54;14.60;99.90
10083;DHT22;5080;48.528;8.078;2024-02-15T11:19:45;14.70;99.90
10083;DHT22;5080;48.528;8.078;2024-02-15T11:22:14;14.70;99.90
10083;DHT22;5080;48.528;8.078;2024-02-15T11:24:47;14.80;99.90
10083;DHT22;5080;48.528;8.078;2024-02-15T11:27:24;14.90;99.90
10083;DHT22;5080;48.528;8.078;2024-02-15T11:29:55;15.00;99.90
10083;DHT22;5080;48.528;8.078;2024-02-15T11:32:41;15.10;99.90
10083;DHT22;5080;48.528;8.078;2024-02-15T11:35:10;15.10;99.90
10083;DHT22;5080;48.528;8.078;2024-02-15T11:37:53;15.20;99.90
10083;DHT22;5080;48.528;8.078;2024-02-15T11:40:22;15.20;99.90
10083;DHT22;5080;48.528;8.078;2024-02-15T11:42:49;15.30;99.90
10083;DHT22;5080;48.528;8.078;2024-02-15T11:45:18;15.30;99.90
10083;DHT22;5080;48.528;8.078;2024-02-15T11:47:48;15.30;99.90
10083;DHT22;5080;48.528;8.078;2024-02-15T11:50:16;15.30;99.90
10083;DHT22;5080;48.528;8.078;2024-02-15T11:52:43;15.40;99.90
10083;DHT22;5080;48.528;8.078;2024-02-15T11:55:12;15.40;99.90
10083;DHT22;5080;48.528;8.078;2024-02-15T11:57:39;15.50;99.90
10083;DHT22;5080;48.528;8.078;2024-02-15T12:00:22;15.50;99.90
10083;DHT22;5080;48.528;8.078;2024-02-15T12:03:07;15.60;99.90
10083;DHT22;5080;48.528;8.078;2024-02-15T12:05:51;15.60;99.90
10083;DHT22;5080;48.528;8.078;2024-02-15T12:08:35;15.60;99.90
10083;DHT22;5080;48.528;8.078;2024-02-15T12:11:20;15.60;99.90
10083;DHT22;5080;48.528;8.078;2024-02-15T12:14:04;15.70;99.90
10083;DHT22;5080;48.528;8.078;2024-02-15T12:17:03;15.60;99.90
10083;DHT22;5080;48.528;8.078;2024-02-15T12:19:48;15.60;99.90
10083;DHT22;5080;48.528;8.078;2024-02-15T12:22:18;15.70;99.90
10083;DHT22;5080;48.528;8.078;2024-02-15T12:24:52;15.80;99.90
10083;DHT22;5080;48.528;8.078;2024-02-15T12:27:19;15.90;99.90
10083;DHT22;5080;48.528;8.078;2024-02-15T12:29:51;15.90;99.90
10083;DHT22;5080;48.528;8.078;2024-02-15T12:32:21;15.90;99.90
10083;DHT22;5080;48.528;8.078;2024-02-15T12:34:48;15.90;99.90
10083;DHT22;5080;48.528;8.078;2024-02-15T12:37:18;15.90;99.90
10083;DHT22;5080;48.528;8.078;2024-02-15T12:39:46;15.90;99.90
10083;DHT22;5080;48.528;8.078;2024-02-15T12:42:13;16.00;99.90
10083;DHT22;5080;48.528;8.078;2024-02-15T12:44:43;16.00;99.90
10083;DHT22;5080;48.528;8.078;2024-02-15T12:47:18;16.10;99.90
10083;DHT22;5080;48.528;8.078;2024-02-15T12:49:46;16.10;99.90
10083;DHT22;5080;48.528;8.078;2024-02-15T12:52:36;16.10;99.90
10083;DHT22;5080;48.528;8.078;2024-02-15T12:55:17;16.20;99.90
10083;DHT22;5080;48.528;8.078;2024-02-15T12:57:48;16.10;99.90
10083;DHT22;5080;48.528;8.078;2024-02-15T13:00:18;16.20;99.90
10083;DHT22;5080;48.528;8.078;2024-02-15T13:02:46;16.30;99.90
10083;DHT22;5080;48.528;8.078;2024-02-15T13:05:16;16.30;99.90
10083;DHT22;5080;48.528;8.078;2024-02-15T13:07:45;16.40;99.90
10083;DHT22;5080;48.528;8.078;2024-02-15T13:10:12;16.50;99.90
10083;DHT22;5080;48.528;8.078;2024-02-15T13:12:40;16.50;99.90
10083;DHT22;5080;48.528;8.078;2024-02-15T13:15:09;16.50;99.90
10083;DHT22;5080;48.528;8.078;2024-02-15T13:17:40;16.50;99.90
10083;DHT22;5080;48.528;8.078;2024-02-15T13:20:10;16.50;99.90
10083;DHT22;5080;48.528;8.078;2024-02-15T13:22:40;16.50;99.90
10083;DHT22;5080;48.528;8.078;2024-02-15T13:25:09;16.50;99.90
10083;DHT22;5080;48.528;8.078;2024-02-15T13:27:36;16.50;99.90
10083;DHT22;5080;48.528;8.078;2024-02-15T13:30:05;16.50;99.90
10083;DHT22;5080;48.528;8.078;2024-02-15T13:32:34;16.40;99.90
10083;DHT22;5080;48.528;8.078;2024-02-15T13:35:02;16.50;99.90
10083;DHT22;5080;48.528;8.078;2024-02-15T13:37:40;16.50;99.90
10083;DHT22;5080;48.528;8.078;2024-02-15T13:40:09;16.50;99.90
10083;DHT22;5080;48.528;8.078;2024-02-15T13:42:41;16.50;99.90
10083;DHT22;5080;48.528;8.078;2024-02-15T13:45:08;16.50;99.90
10083;DHT22;5080;48.528;8.078;2024-02-15T13:47:39;16.60;99.90
10083;DHT22;5080;48.528;8.078;2024-02-15T13:50:06;16.60;99.90
10083;DHT22;5080;48.528;8.078;2024-02-15T13:52:33;16.60;99.90
10083;DHT22;5080;48.528;8.078;2024-02-15T13:55:02;16.60;99.90
10083;DHT22;5080;48.528;8.078;2024-02-15T13:57:30;16.60;99.90
10083;DHT22;5080;48.528;8.078;2024-02-15T13:59:57;16.50;99.90
10083;DHT22;5080;48.528;8.078;2024-02-15T14:02:23;16.60;99.90
10083;DHT22;5080;48.528;8.078;2024-02-15T14:04:50;16.50;99.90
10083;DHT22;5080;48.528;8.078;2024-02-15T14:07:17;16.50;99.90
10083;DHT22;5080;48.528;8.078;2024-02-15T14:09:44;16.50;99.90
10083;DHT22;5080;48.528;8.078;2024-02-15T14:12:12;16.50;99.90
10083;DHT22;5080;48.528;8.078;2024-02-15T14:14:39;16.60;99.90
10083;DHT22;5080;48.528;8.078;2024-02-15T14:17:06;16.60;99.90
10083;DHT22;5080;48.528;8.078;2024-02-15T14:19:33;16.60;99.90
10083;DHT22;5080;48.528;8.078;2024-02-15T14:22:00;16.60;99.90
10083;DHT22;5080;48.528;8.078;2024-02-15T14:24:27;16.70;99.90
10083;DHT22;5080;48.528;8.078;2024-02-15T14:26:54;16.70;99.90
10083;DHT22;5080;48.528;8.078;2024-02-15T14:29:22;16.80;99.90
10083;DHT22;5080;48.528;8.078;2024-02-15T14:31:53;16.90;99.90
10083;DHT22;5080;48.528;8.078;2024-02-15T14:34:37;17.00;99.90
10083;DHT22;5080;48.528;8.078;2024-02-15T14:37:06;17.10;99.90
10083;DHT22;5080;48.528;8.078;2024-02-15T14:39:33;17.10;99.90
10083;DHT22;5080;48.528;8.078;2024-02-15T14:42:00;17.20;99.90
10083;DHT22;5080;48.528;8.078;2024-02-15T14:44:28;17.20;99.90
10083;DHT22;5080;48.528;8.078;2024-02-15T14:46:55;17.20;99.90
10083;DHT22;5080;48.528;8.078;2024-02-15T14:49:22;17.20;99.90
10083;DHT22;5080;48.528;8.078;2024-02-15T14:51:49;17.10;99.90
10083;DHT22;5080;48.528;8.078;2024-02-15T14:54:16;17.10;99.90
10083;DHT22;5080;48.528;8.078;2024-02-15T14:56:44;17.10;99.90
10083;DHT22;5080;48.528;8.078;2024-02-15T14:59:11;17.00;99.90
10083;DHT22;5080;48.528;8.078;2024-02-15T15:01:39;16.90;99.90
10083;DHT22;5080;48.528;8.078;2024-02-15T15:04:06;16.90;99.90
10083;DHT22;5080;48.528;8.078;2024-02-15T15:06:35;16.90;99.90
10083;DHT22;5080;48.528;8.078;2024-02-15T15:09:20;16.80;99.90
10083;DHT22;5080;48.528;8.078;2024-02-15T15:12:04;16.80;99.90
10083;DHT22;5080;48.528;8.078;2024-02-15T15:14:49;16.70;99.90
10083;DHT22;5080;48.528;8.078;2024-02-15T15:17:17;16.60;99.90
10083;DHT22;5080;48.528;8.078;2024-02-15T15:19:46;16.60;99.90
10083;DHT22;5080;48.528;8.078;2024-02-15T15:22:13;16.50;99.90
10083;DHT22;5080;48.528;8.078;2024-02-15T15:24:39;16.40;99.90
10083;DHT22;5080;48.528;8.078;2024-02-15T15:27:06;16.40;99.90
10083;DHT22;5080;48.528;8.078;2024-02-15T15:29:33;16.30;99.90
10083;DHT22;5080;48.528;8.078;2024-02-15T15:32:00;16.20;99.90
10083;DHT22;5080;48.528;8.078;2024-02-15T15:34:28;16.30;99.90
10083;DHT22;5080;48.528;8.078;2024-02-15T15:36:55;16.30;99.90
10083;DHT22;5080;48.528;8.078;2024-02-15T15:39:22;16.30;99.90
10083;DHT22;5080;48.528;8.078;2024-02-15T15:41:50;16.20;99.90
10083;DHT22;5080;48.528;8.078;2024-02-15T15:44:19;16.20;99.90
10083;DHT22;5080;48.528;8.078;2024-02-15T15:46:48;16.20;99.90
10083;DHT22;5080;48.528;8.078;2024-02-15T15:49:15;16.10;99.90
10083;DHT22;5080;48.528;8.078;2024-02-15T15:51:43;16.10;99.90
10083;DHT22;5080;48.528;8.078;2024-02-15T15:54:10;16.00;99.90
10083;DHT22;5080;48.528;8.078;2024-02-15T15:56:37;16.00;99.90
10083;DHT22;5080;48.528;8.078;2024-02-15T15:59:03;15.90;99.90
10083;DHT22;5080;48.528;8.078;2024-02-15T16:01:31;15.90;99.90
10083;DHT22;5080;48.528;8.078;2024-02-15T16:03:58;15.80;99.90